createdAt,value
2023-08-12T00:01:19.091Z,2.17
2023-08-12T00:04:43.489Z,2.33
2023-08-12T00:08:08.723Z,2.60
2023-08-12T00:11:36.762Z,2.30
2023-08-12T00:15:01.283Z,2.40
2023-08-12T00:18:27.941Z,2.70
2023-08-12T00:21:53.851Z,2.10
2023-08-12T00:25:18.360Z,2.27
2023-08-12T00:28:43.498Z,3.20
2023-08-12T00:32:07.799Z,2.90
2023-08-12T00:35:31.956Z,2.53
2023-08-12T00:38:55.475Z,2.67
2023-08-12T00:42:20.962Z,2.60
2023-08-12T00:45:47.204Z,2.40
2023-08-12T00:49:11.469Z,2.30
2023-08-12T00:52:35.062Z,2.17
2023-08-12T00:55:58.955Z,2.40
2023-08-12T00:59:24.066Z,2.10
2023-08-12T01:02:51.076Z,2.20
2023-08-12T01:06:15.236Z,1.97
2023-08-12T01:09:39.374Z,2.13
2023-08-12T01:13:21.993Z,2.17
2023-08-12T01:16:51.733Z,2.23
2023-08-12T01:20:17.134Z,2.00
2023-08-12T01:23:44.156Z,2.30
2023-08-12T01:27:10.663Z,2.50
2023-08-12T01:30:38.090Z,2.30
2023-08-12T01:34:10.430Z,2.17
2023-08-12T01:37:39.363Z,2.47
2023-08-12T01:41:04.604Z,2.60
2023-08-12T01:44:28.881Z,2.07
2023-08-12T01:47:52.532Z,2.30
2023-08-12T01:51:16.202Z,2.00
2023-08-12T01:54:39.781Z,2.00
2023-08-12T01:58:05.764Z,2.17
2023-08-12T02:01:30.001Z,2.27
2023-08-12T02:04:53.660Z,2.13
2023-08-12T02:08:17.258Z,2.07
2023-08-12T02:11:40.763Z,2.40
2023-08-12T02:15:07.919Z,2.03
2023-08-12T02:18:31.429Z,2.10
2023-08-12T02:21:55.386Z,2.20
2023-08-12T02:25:19.036Z,2.10
2023-08-12T02:28:42.720Z,2.30
2023-08-12T02:32:08.372Z,2.00
2023-08-12T02:35:32.136Z,2.20
2023-08-12T02:38:55.670Z,2.10
2023-08-12T02:42:19.716Z,2.20
2023-08-12T02:45:43.357Z,2.60
2023-08-12T02:49:08.738Z,2.70
2023-08-12T02:52:32.389Z,2.60
2023-08-12T02:55:55.994Z,2.00
2023-08-12T02:59:19.605Z,2.30
2023-08-12T03:02:45.105Z,2.47
2023-08-12T03:06:10.532Z,2.47
2023-08-12T03:09:34.663Z,2.00
2023-08-12T03:12:58.815Z,2.40
2023-08-12T03:16:22.921Z,2.27
2023-08-12T03:19:50.357Z,2.27
2023-08-12T03:23:15.439Z,2.10
2023-08-12T03:26:40.570Z,2.60
2023-08-12T03:30:05.110Z,2.23
2023-08-12T03:33:29.686Z,2.23
2023-08-12T03:36:53.520Z,2.20
2023-08-12T03:40:19.233Z,2.30
2023-08-12T03:43:43.878Z,2.00
2023-08-12T03:47:08.164Z,2.23
2023-08-12T03:50:36.077Z,2.07
2023-08-12T03:54:00.260Z,2.67
2023-08-12T03:57:26.655Z,2.10
2023-08-12T04:00:50.335Z,2.30
2023-08-12T04:04:14.848Z,2.50
2023-08-12T04:07:39.179Z,2.30
2023-08-12T04:11:03.161Z,2.30
2023-08-12T04:14:28.692Z,2.40
2023-08-12T04:17:54.366Z,2.13
2023-08-12T04:21:18.297Z,1.97
2023-08-12T04:24:42.216Z,1.90
2023-08-12T04:28:06.892Z,2.03
2023-08-12T04:31:33.128Z,2.20
2023-08-12T04:34:56.848Z,2.33
2023-08-12T04:38:21.770Z,2.30
2023-08-12T04:41:47.622Z,2.47
2023-08-12T04:45:12.587Z,2.57
2023-08-12T04:48:37.776Z,2.30
2023-08-12T04:52:01.514Z,2.47
2023-08-12T04:55:27.244Z,2.40
2023-08-12T04:58:50.786Z,2.50
2023-08-12T05:02:14.477Z,2.90
2023-08-12T05:05:39.865Z,2.20
2023-08-12T05:09:05.130Z,2.20
2023-08-12T05:12:29.181Z,2.40
2023-08-12T05:15:54.017Z,2.30
2023-08-12T05:19:18.189Z,2.23
2023-08-12T05:22:43.224Z,2.10
2023-08-12T05:26:06.847Z,2.13
2023-08-12T05:29:30.740Z,2.40
2023-08-12T05:32:54.576Z,2.90
2023-08-12T05:36:18.638Z,2.60
2023-08-12T05:39:43.765Z,2.20
2023-08-12T05:43:07.375Z,2.63
2023-08-12T05:46:30.860Z,4.10
2023-08-12T05:49:54.432Z,2.77
2023-08-12T05:53:17.978Z,2.53
2023-08-12T05:56:43.652Z,2.40
2023-08-12T06:00:09.176Z,2.40
2023-08-12T06:03:35.337Z,2.30
2023-08-12T06:06:58.898Z,2.30
2023-08-12T06:10:22.923Z,2.50
2023-08-12T06:13:47.893Z,2.40
2023-08-12T06:17:11.497Z,2.50
2023-08-12T06:20:35.152Z,2.10
2023-08-12T06:23:58.846Z,2.60
2023-08-12T06:27:22.452Z,2.40
2023-08-12T06:30:49.403Z,2.57
2023-08-12T06:34:12.916Z,2.50
2023-08-12T06:37:36.554Z,2.50
2023-08-12T06:41:00.129Z,2.33
2023-08-12T06:44:23.848Z,2.67
2023-08-12T06:47:48.761Z,2.40
2023-08-12T06:51:12.404Z,2.20
2023-08-12T06:54:36.056Z,2.13
2023-08-12T06:57:59.624Z,2.40
2023-08-12T07:01:23.209Z,2.30
2023-08-12T07:04:48.573Z,2.17
2023-08-12T07:08:12.240Z,2.30
2023-08-12T07:11:35.999Z,2.27
2023-08-12T07:14:59.903Z,2.20
2023-08-12T07:18:24.670Z,2.43
2023-08-12T07:21:49.797Z,2.03
2023-08-12T07:25:13.624Z,2.20
2023-08-12T07:28:37.798Z,1.90
2023-08-12T07:32:01.419Z,1.70
2023-08-12T07:35:25.072Z,1.93
2023-08-12T07:38:50.110Z,2.30
2023-08-12T07:42:13.898Z,1.93
2023-08-12T07:45:37.683Z,2.03
2023-08-12T07:49:01.267Z,2.17
2023-08-12T07:52:24.923Z,1.77
2023-08-12T07:55:49.849Z,2.20
2023-08-12T07:59:13.913Z,2.00
2023-08-12T08:02:37.527Z,2.23
2023-08-12T08:06:01.098Z,1.93
2023-08-12T08:09:24.702Z,1.80
2023-08-12T08:12:49.606Z,2.00
2023-08-12T08:16:13.851Z,2.00
2023-08-12T08:19:37.583Z,2.10
2023-08-12T08:23:01.171Z,1.90
2023-08-12T08:26:25.808Z,1.90
2023-08-12T08:29:50.689Z,1.97
2023-08-12T08:33:15.272Z,1.93
2023-08-12T08:36:38.852Z,1.80
2023-08-12T08:40:02.444Z,1.73
2023-08-12T08:43:34.759Z,1.70
2023-08-12T08:47:01.220Z,1.63
2023-08-12T08:50:25.988Z,1.97
2023-08-12T08:53:52.431Z,2.00
2023-08-12T08:57:18.843Z,1.77
2023-08-12T09:00:46.650Z,1.90
2023-08-12T09:04:13.197Z,1.80
2023-08-12T09:07:37.091Z,1.70
2023-08-12T09:11:02.498Z,2.10
2023-08-12T09:14:26.593Z,1.90
2023-08-12T09:17:50.266Z,1.83
2023-08-12T09:21:17.312Z,1.63
2023-08-12T09:24:40.981Z,1.80
2023-08-12T09:28:05.861Z,1.80
2023-08-12T09:31:33.621Z,1.90
2023-08-12T09:34:58.367Z,1.63
2023-08-12T09:38:24.067Z,1.80
2023-08-12T09:41:47.913Z,1.80
2023-08-12T09:45:14.130Z,1.60
2023-08-12T09:48:38.231Z,1.50
2023-08-12T09:52:03.954Z,1.67
2023-08-12T09:55:29.952Z,1.60
2023-08-12T09:58:57.397Z,1.90
2023-08-12T10:02:22.800Z,1.63
2023-08-12T10:05:48.182Z,1.43
2023-08-12T10:09:13.358Z,1.43
2023-08-12T10:12:39.501Z,1.20
2023-08-12T10:16:04.286Z,1.40
2023-08-12T10:19:29.072Z,1.60
2023-08-12T10:22:54.282Z,1.40
2023-08-12T10:26:19.580Z,1.50
2023-08-12T10:29:48.003Z,1.60
2023-08-12T10:33:12.887Z,1.37
2023-08-12T10:37:00.315Z,2.10
2023-08-12T10:40:26.326Z,1.73
2023-08-12T10:44:01.148Z,1.90
2023-08-12T10:47:26.624Z,1.60
2023-08-12T10:50:55.951Z,1.40
2023-08-12T10:54:24.578Z,1.47
2023-08-12T10:57:48.467Z,1.40
2023-08-12T11:01:19.521Z,2.00
2023-08-12T11:04:44.849Z,1.80
2023-08-12T11:08:08.738Z,1.83
2023-08-12T11:11:32.411Z,1.83
2023-08-12T11:14:56.480Z,1.70
2023-08-12T11:18:23.190Z,1.70
2023-08-12T11:21:49.852Z,1.80
2023-08-12T11:25:17.640Z,1.40
2023-08-12T11:28:42.813Z,2.00
2023-08-12T11:32:08.502Z,1.70
2023-08-12T11:35:33.099Z,1.53
2023-08-12T11:38:59.142Z,1.60
2023-08-12T11:42:22.948Z,2.27
2023-08-12T11:45:47.283Z,1.90
2023-08-12T11:49:10.905Z,1.83
2023-08-12T11:52:35.316Z,1.50
2023-08-12T11:56:01.359Z,1.40
2023-08-12T11:59:25.426Z,1.43
2023-08-12T12:02:51.279Z,2.03
2023-08-12T12:06:15.538Z,1.70
2023-08-12T12:09:39.209Z,2.13
2023-08-12T12:13:06.059Z,1.80
2023-08-12T12:16:42.492Z,1.90
2023-08-12T12:20:11.714Z,1.80
2023-08-12T12:23:36.882Z,1.90
2023-08-12T12:27:01.539Z,2.30
2023-08-12T12:30:27.430Z,2.20
2023-08-12T12:33:51.024Z,1.80
2023-08-12T12:37:15.068Z,1.67
2023-08-12T12:40:39.516Z,1.70
2023-08-12T12:44:03.793Z,1.90
2023-08-12T12:47:29.036Z,2.00
2023-08-12T12:50:52.918Z,2.60
2023-08-12T12:54:16.534Z,2.23
2023-08-12T12:57:40.585Z,1.90
2023-08-12T13:01:05.457Z,2.20
2023-08-12T13:04:30.455Z,2.00
2023-08-12T13:07:54.496Z,1.50
2023-08-12T13:11:18.347Z,1.67
2023-08-12T13:14:42.137Z,1.57
2023-08-12T13:18:06.501Z,2.00
2023-08-12T13:21:31.556Z,1.80
2023-08-12T13:24:55.245Z,1.97
2023-08-12T13:28:19.780Z,2.00
2023-08-12T13:31:44.202Z,2.53
2023-08-12T13:35:10.486Z,2.00
2023-08-12T13:38:35.901Z,2.10
2023-08-12T13:41:59.956Z,2.10
2023-08-12T13:45:24.591Z,2.07
2023-08-12T13:48:48.293Z,2.03
2023-08-12T13:52:12.343Z,2.13
2023-08-12T13:55:37.760Z,1.80
2023-08-12T13:59:01.360Z,1.97
2023-08-12T14:02:25.413Z,2.40
2023-08-12T14:05:49.244Z,2.10
2023-08-12T14:09:15.007Z,1.93
2023-08-12T14:12:40.092Z,2.03
2023-08-12T14:16:03.836Z,2.00
2023-08-12T14:19:27.972Z,2.30
2023-08-12T14:22:51.626Z,2.20
2023-08-12T14:26:15.460Z,1.97
2023-08-12T14:29:40.553Z,1.87
2023-08-12T14:33:04.274Z,2.07
2023-08-12T14:36:27.877Z,2.07
2023-08-12T14:39:51.662Z,2.10
2023-08-12T14:43:15.300Z,1.87
2023-08-12T14:46:40.708Z,2.20
2023-08-12T14:50:05.297Z,2.30
2023-08-12T14:53:30.626Z,1.93
2023-08-12T14:56:54.330Z,1.87
2023-08-12T15:00:18.283Z,1.60
2023-08-12T15:03:43.207Z,1.50
2023-08-12T15:07:07.248Z,1.33
2023-08-12T15:10:31.046Z,1.50
2023-08-12T15:13:54.730Z,1.57
2023-08-12T15:17:18.387Z,1.43
2023-08-12T15:20:43.489Z,1.40
2023-08-12T15:24:08.310Z,1.20
2023-08-12T15:27:32.514Z,1.50
2023-08-12T15:30:56.315Z,1.27
2023-08-12T15:34:20.004Z,1.40
2023-08-12T15:37:45.172Z,1.50
2023-08-12T15:41:16.306Z,1.27
2023-08-12T15:44:42.642Z,1.37
2023-08-12T15:48:08.660Z,1.30
2023-08-12T15:51:32.360Z,1.20
2023-08-12T15:54:57.705Z,1.20
2023-08-12T15:58:21.412Z,1.40
2023-08-12T16:01:45.131Z,1.20
2023-08-12T16:05:09.829Z,1.40
2023-08-12T16:08:33.508Z,1.40
2023-08-12T16:11:58.756Z,1.70
2023-08-12T16:15:22.635Z,1.40
2023-08-12T16:18:46.274Z,1.70
2023-08-12T16:22:10.427Z,1.93
2023-08-12T16:25:34.789Z,2.00
2023-08-12T16:28:59.896Z,1.90
2023-08-12T16:32:23.483Z,1.70
2023-08-12T16:35:48.802Z,1.70
2023-08-12T16:39:12.540Z,2.03
2023-08-12T16:42:36.430Z,2.17
2023-08-12T16:46:01.663Z,2.83
2023-08-12T16:49:25.857Z,2.20
2023-08-12T16:52:49.426Z,2.70
2023-08-12T16:56:13.057Z,3.20
2023-08-12T16:59:37.084Z,2.80
2023-08-12T17:03:02.164Z,2.63
2023-08-12T17:06:25.839Z,3.07
2023-08-12T17:09:49.461Z,2.20
2023-08-12T17:13:13.056Z,2.23
2023-08-12T17:16:37.962Z,2.20
2023-08-12T17:20:04.567Z,1.87
2023-08-12T17:23:28.334Z,1.70
2023-08-12T17:26:52.913Z,1.70
2023-08-12T17:30:16.877Z,2.10
2023-08-12T17:33:41.446Z,1.83
2023-08-12T17:37:06.803Z,1.73
2023-08-12T17:40:30.457Z,1.20
2023-08-12T17:43:54.044Z,1.90
2023-08-12T17:47:17.980Z,2.00
2023-08-12T17:50:41.699Z,1.50
2023-08-12T17:54:07.056Z,1.63
2023-08-12T17:57:30.643Z,1.60
2023-08-12T18:00:54.914Z,1.50
2023-08-12T18:04:18.992Z,1.43
2023-08-12T18:07:43.392Z,1.20
2023-08-12T18:11:08.452Z,1.57
2023-08-12T18:14:32.340Z,1.17
2023-08-12T18:17:56.054Z,1.53
2023-08-12T18:21:19.686Z,1.27
2023-08-12T18:24:43.311Z,1.40
2023-08-12T18:28:09.080Z,1.30
2023-08-12T18:31:32.774Z,1.50
2023-08-12T18:34:57.195Z,1.40
2023-08-12T18:38:20.971Z,1.60
2023-08-12T18:41:44.660Z,1.37
2023-08-12T18:45:10.470Z,1.50
2023-08-12T18:48:34.064Z,1.40
2023-08-12T18:51:57.672Z,1.40
2023-08-12T18:55:22.340Z,1.40
2023-08-12T18:58:46.034Z,1.50
2023-08-12T19:02:10.994Z,1.60
2023-08-12T19:05:34.534Z,1.50
2023-08-12T19:08:59.213Z,1.50
2023-08-12T19:12:23.037Z,1.37
2023-08-12T19:15:46.712Z,1.50
2023-08-12T19:19:12.506Z,1.40
2023-08-12T19:22:36.069Z,1.50
2023-08-12T19:25:59.983Z,1.30
2023-08-12T19:29:23.574Z,1.60
2023-08-12T19:32:51.918Z,1.50
2023-08-12T19:36:16.896Z,1.30
2023-08-12T19:39:40.662Z,1.70
2023-08-12T19:43:04.350Z,1.47
2023-08-12T19:46:28.883Z,1.80
2023-08-12T19:49:52.572Z,1.43
2023-08-12T19:53:17.665Z,1.47
2023-08-12T19:56:41.378Z,1.43
2023-08-12T20:00:06.465Z,1.70
2023-08-12T20:03:35.290Z,1.50
2023-08-12T20:06:59.244Z,1.70
2023-08-12T20:10:24.777Z,1.60
2023-08-12T20:13:48.711Z,1.50
2023-08-12T20:17:12.193Z,1.63
2023-08-12T20:20:35.798Z,1.80
2023-08-12T20:23:59.682Z,2.10
2023-08-12T20:27:24.644Z,1.80
2023-08-12T20:30:48.526Z,1.77
2023-08-12T20:34:12.180Z,1.90
2023-08-12T20:37:36.797Z,2.10
2023-08-12T20:41:01.005Z,1.90
2023-08-12T20:44:26.032Z,1.77
2023-08-12T20:47:49.892Z,1.87
2023-08-12T20:51:13.573Z,2.03
2023-08-12T20:54:37.209Z,1.57
2023-08-12T20:58:00.803Z,2.07
2023-08-12T21:01:26.441Z,2.37
2023-08-12T21:04:50.023Z,2.10
2023-08-12T21:08:13.708Z,2.07
2023-08-12T21:11:37.905Z,1.80
2023-08-12T21:15:01.515Z,1.80
2023-08-12T21:18:26.467Z,2.07
2023-08-12T21:21:50.155Z,2.23
2023-08-12T21:25:13.656Z,1.87
2023-08-12T21:28:37.270Z,2.13
2023-08-12T21:32:01.451Z,2.10
2023-08-12T21:35:26.670Z,2.17
2023-08-12T21:38:51.447Z,1.90
2023-08-12T21:42:15.385Z,1.80
2023-08-12T21:45:39.702Z,2.03
2023-08-12T21:49:03.399Z,2.30
2023-08-12T21:52:29.245Z,1.80
2023-08-12T21:55:52.835Z,1.90
2023-08-12T21:59:16.684Z,1.90
2023-08-12T22:02:40.612Z,1.87
2023-08-12T22:06:04.802Z,1.83
2023-08-12T22:09:34.511Z,1.90
2023-08-12T22:12:58.676Z,2.10
2023-08-12T22:16:22.194Z,2.20
2023-08-12T22:19:48.608Z,2.00
2023-08-12T22:23:12.451Z,2.17
2023-08-12T22:26:37.705Z,1.90
2023-08-12T22:30:01.166Z,1.90
2023-08-12T22:33:25.138Z,1.97
2023-08-12T22:36:48.785Z,2.07
2023-08-12T22:40:12.430Z,2.20
2023-08-12T22:43:37.259Z,2.27
2023-08-12T22:47:00.753Z,2.10
2023-08-12T22:50:24.346Z,2.00
2023-08-12T22:53:47.840Z,2.27
2023-08-12T22:57:11.318Z,2.00
2023-08-12T23:00:36.891Z,1.80
2023-08-12T23:04:00.423Z,1.80
2023-08-12T23:07:24.171Z,1.70
2023-08-12T23:10:47.908Z,1.50
2023-08-12T23:14:11.517Z,1.77
2023-08-12T23:17:37.060Z,1.97
2023-08-12T23:21:02.160Z,1.93
2023-08-12T23:24:26.147Z,1.93
2023-08-12T23:27:49.903Z,1.63
2023-08-12T23:31:13.449Z,1.67
2023-08-12T23:34:38.345Z,2.17
2023-08-12T23:38:02.867Z,2.00
2023-08-12T23:41:27.160Z,1.93
2023-08-12T23:44:50.573Z,1.80
2023-08-12T23:48:14.376Z,1.90
2023-08-12T23:51:41.275Z,1.80
2023-08-12T23:55:05.383Z,1.87
2023-08-12T23:58:29.244Z,1.93
